WetterOnline ( https://www.wetteronline.ch )

Wetter aktuell Görlitz

Aktuelles Wetter: Görlitz (240m)

6-stündlich | Neueste Meldungen
Ortszeit Temperatur Wetter
So, 15.09. 8:00 12.9° C leicht bewölkt
So, 15.09. 2:00 7.9° C wolkenlos
Sa, 14.09. 20:00 14.5° C leicht bewölkt
Sa, 14.09. 14:00 17.6° C fast wolkenlos
Sa, 14.09. 8:00 9.5° C wolkenlos
Sa, 14.09. 2:00 11.6° C leicht bewölkt
Fr, 13.09. 20:00 15.8° C bewölkt
Fr, 13.09. 14:00 20.5° C bedeckt
Ortszeit Temperatur Wetter
So, 15.09. 8:00 12.9° C leicht bewölkt
So, 15.09. 7:50 12.9° C leicht bewölkt
So, 15.09. 7:40 12.6° C leicht bewölkt
So, 15.09. 7:30 12.1° C wolkig
So, 15.09. 7:20 12.1° C wolkig
So, 15.09. 7:10 12.1° C leicht bewölkt
So, 15.09. 7:00 11.8° C wolkenlos
So, 15.09. 6:30 11.6° C leicht bewölkt
So, 15.09. 6:00 11.8° C wolkig
So, 15.09. 5:30 11.2° C wolkig
So, 15.09. 5:00 9.7° C -
Ortszeit Relative Feuchte Sichtweite
So, 15.09. 8:00 64% 60 km
So, 15.09. 2:00 97% 10 km
Sa, 14.09. 20:00 57% 50 km
Sa, 14.09. 14:00 43% 55 km
Sa, 14.09. 8:00 80% 40 km
Sa, 14.09. 2:00 80% 55 km
Fr, 13.09. 20:00 82% >70 km
Fr, 13.09. 14:00 63% 60 km
Ortszeit Relative Feuchte Sichtweite
So, 15.09. 8:00 64% 60 km
So, 15.09. 7:50 64% -
So, 15.09. 7:40 65% -
So, 15.09. 7:30 65% 50 km
So, 15.09. 7:20 65% -
So, 15.09. 7:10 66% -
So, 15.09. 7:00 67% 55 km
So, 15.09. 6:30 68% 60 km
So, 15.09. 6:00 68% 55 km
So, 15.09. 5:30 70% 55 km
So, 15.09. 5:00 75% 50 km
Ortszeit Niederschlagsmenge Niederschlagsart
So, 15.09. 8:00 0.0 l/m2 in 12 Std. -
So, 15.09. 2:00 0.0 l/m2 in 6 Std. -
Sa, 14.09. 20:00 0.0 l/m2 in 12 Std. -
Sa, 14.09. 14:00 0.0 l/m2 in 6 Std. -
Sa, 14.09. 8:00 0.0 l/m2 in 12 Std. -
Sa, 14.09. 2:00 0.0 l/m2 in 6 Std. -
Fr, 13.09. 20:00 0.3 l/m2 in 12 Std. Regen
Fr, 13.09. 14:00 0.0 l/m2 in 6 Std. -
Ortszeit Niederschlagsmenge Niederschlagsart
So, 15.09. 8:00 0.0 l/m2 in 1 Std. -
So, 15.09. 7:50 keine Meldung -
So, 15.09. 7:40 keine Meldung -
So, 15.09. 7:30 0.0 l/m2 in 1 Std. -
So, 15.09. 7:20 keine Meldung -
So, 15.09. 7:10 keine Meldung -
So, 15.09. 7:00 0.0 l/m2 in 1 Std. -
So, 15.09. 6:30 0.0 l/m2 in 1 Std. -
So, 15.09. 6:00 0.0 l/m2 in 1 Std. -
So, 15.09. 5:30 0.0 l/m2 in 1 Std. -
So, 15.09. 5:00 0.0 l/m2 in 1 Std. -
Ortszeit Stärke Spitze Richtung
km/h Bft. km/h Grad Sektor
So, 15.09. 8:00 18 3 29 220° SW
So, 15.09. 2:00 6 1 11 160° S
Sa, 14.09. 20:00 4 1 22 110° O
Sa, 14.09. 14:00 7 2 18 80° O
Sa, 14.09. 8:00 4 1 11 270° W
Sa, 14.09. 2:00 0 0 22 - -
Fr, 13.09. 20:00 4 1 40 350° N
Fr, 13.09. 14:00 18 3 40 260° W
Ortszeit Stärke Spitze Richtung
km/h Bft. km/h Grad Sektor
So, 15.09. 8:00 18 3 29 220° SW
So, 15.09. 7:50 18 3 - 220° SW
So, 15.09. 7:40 20 4 - 220° SW
So, 15.09. 7:30 18 3 29 230° SW
So, 15.09. 7:20 18 3 - 230° SW
So, 15.09. 7:10 18 3 - 220° SW
So, 15.09. 7:00 18 3 25 220° SW
So, 15.09. 6:30 14 3 22 220° SW
So, 15.09. 6:00 14 3 25 220° SW
So, 15.09. 5:30 14 3 18 220° SW
So, 15.09. 5:00 7 2 14 210° SW
Ortszeit Untergrenze Bedeckung Gattung
total tief tief mittel hoch
So, 15.09. 8:00 12000 m 5/8 0/8 - - -
So, 15.09. 2:00 - 0/8 0/8 - - -
Sa, 14.09. 20:00 9000 m 4/8 0/8 - - -
Sa, 14.09. 14:00 1410 m 0/8 0/8 - - -
Sa, 14.09. 8:00 - 0/8 0/8 - - -
Sa, 14.09. 2:00 1500 m 2/8 2/8 - - -
Fr, 13.09. 20:00 1350 m 8/8 7/8 - - -
Fr, 13.09. 14:00 900 m 8/8 8/8 - - -
Ortszeit Bedeckungsgrad in Achtel und Wolkenuntergrenze
So, 15.09. 8:00 5(12000m)
So, 15.09. 7:50 5(12000m)
So, 15.09. 7:40 3(12000m)
So, 15.09. 7:30 1(10500m) 7(12000m)
So, 15.09. 7:20 1(10500m) 7(12000m)
So, 15.09. 7:10 1(10500m) 5(12000m)
So, 15.09. 7:00 1(10500m) 2(12000m)
So, 15.09. 6:30 2(9000m) 5(10500m)
So, 15.09. 6:00 6(10500m) 7(10500m)
So, 15.09. 5:30 5(10500m) 5(10500m) 7(12000m)
So, 15.09. 5:00 -
Ortszeit Luftdruck NN (hPa) Tendenz (hPa in 3 Std.)
So, 15.09. 8:00 1025 - 1,6
So, 15.09. 2:00 1029 - 1,9
Sa, 14.09. 20:00 1030 - 1,0
Sa, 14.09. 14:00 1033 - 0,9
Sa, 14.09. 8:00 1035 + 1,1
Sa, 14.09. 2:00 1034 + 1,2
Fr, 13.09. 20:00 1030 + 1,5
Fr, 13.09. 14:00 1028 0,0
Ortszeit Luftdruck NN (hPa) Tendenz (hPa in 3 Std.)
So, 15.09. 8:00 1025 - 1,6
So, 15.09. 7:50 1025 keine Meldung
So, 15.09. 7:40 1025 keine Meldung
So, 15.09. 7:30 1025 - 1,7
So, 15.09. 7:20 1025 keine Meldung
So, 15.09. 7:10 1025 keine Meldung
So, 15.09. 7:00 1025 - 2,0
So, 15.09. 6:30 1025 - 2,1
So, 15.09. 6:00 1026 - 2,2
So, 15.09. 5:30 1026 - 2,4
So, 15.09. 5:00 1027 - 2,0
Ortszeit Schneehöhe (cm)
So, 15.09. 8:00 -
So, 15.09. 2:00 -
Sa, 14.09. 20:00 -
Sa, 14.09. 14:00 -
Sa, 14.09. 8:00 -
Sa, 14.09. 2:00 -
Fr, 13.09. 20:00 -
Fr, 13.09. 14:00 -
Ortszeit Schneehöhe (cm)
So, 15.09. 8:00 -
So, 15.09. 7:50 -
So, 15.09. 7:40 -
So, 15.09. 7:30 -
So, 15.09. 7:20 -
So, 15.09. 7:10 -
So, 15.09. 7:00 -
So, 15.09. 6:30 -
So, 15.09. 6:00 -
So, 15.09. 5:30 -
So, 15.09. 5:00 -
Link zu dieser Seite / Seite empfehlen

Das Wetter in ...